Time;durP1;ratioP1;P1;durP2;ratioP2;P2;SDS_P1;SDS_P2;PMS_P1;PMS_P2;Temp;Humidity;BMP_temperature;BMP_pressure;BME280_temperature;BME280_humidity;BME280_pressure;Samples;Min_cycle;Max_cycle;Signal;HPM_P1;HPM_P2
2023/07/22 00:00:06;;;;;;;4.50;2.72;;;15.40;99.90;;;;;;4935960;29;20059;-64
2023/07/22 00:02:39;;;;;;;4.05;2.80;;;15.40;99.90;;;;;;4941006;29;20415;-64
2023/07/22 00:05:11;;;;;;;3.60;2.60;;;15.40;99.90;;;;;;4945690;29;20043;-64
2023/07/22 00:07:42;;;;;;;4.43;2.65;;;15.40;99.90;;;;;;4945380;29;20051;-64
2023/07/22 00:10:16;;;;;;;5.65;2.47;;;15.40;99.90;;;;;;4940399;29;20075;-64
2023/07/22 00:12:48;;;;;;;3.40;2.90;;;15.40;99.90;;;;;;4939547;29;20046;-64
2023/07/22 00:15:22;;;;;;;3.72;2.60;;;15.40;99.90;;;;;;4942850;29;20911;-64
2023/07/22 00:17:53;;;;;;;3.45;2.30;;;15.30;99.90;;;;;;4951188;29;20047;-64
2023/07/22 00:20:25;;;;;;;4.45;2.30;;;15.10;99.90;;;;;;4935872;29;20050;-64
2023/07/22 00:22:57;;;;;;;4.07;2.72;;;15.10;99.90;;;;;;4949684;29;20043;-64
2023/07/22 00:25:29;;;;;;;4.72;2.40;;;15.10;99.90;;;;;;4947561;29;20526;-65
2023/07/22 00:28:01;;;;;;;4.47;2.65;;;15.10;99.90;;;;;;4930241;29;20125;-64
2023/07/22 00:30:34;;;;;;;4.60;3.03;;;15.10;99.90;;;;;;4932183;29;20082;-64
2023/07/22 00:33:06;;;;;;;6.43;2.40;;;15.20;99.90;;;;;;4928962;29;20055;-64
2023/07/22 00:35:38;;;;;;;2.63;2.22;;;15.20;99.90;;;;;;4927339;29;20076;-64
2023/07/22 00:38:09;;;;;;;3.03;2.35;;;15.20;99.90;;;;;;4937405;29;20064;-63
2023/07/22 00:40:41;;;;;;;3.55;2.58;;;15.10;99.90;;;;;;4940048;29;20062;-64
2023/07/22 00:43:13;;;;;;;3.65;2.50;;;15.00;99.90;;;;;;4951637;29;20039;-63
2023/07/22 00:45:40;;;;;;;3.20;2.63;;;14.90;99.90;;;;;;4942300;29;20576;-63
2023/07/22 00:48:14;;;;;;;3.78;3.10;;;14.80;99.90;;;;;;4943674;29;20111;-64
2023/07/22 00:50:46;;;;;;;3.33;2.50;;;14.80;99.90;;;;;;4941775;29;20425;-63
2023/07/22 00:53:14;;;;;;;3.63;2.85;;;14.70;99.90;;;;;;4942324;29;20046;-63
2023/07/22 00:55:46;;;;;;;3.73;3.00;;;14.70;99.90;;;;;;4919905;29;20399;-63
2023/07/22 00:58:17;;;;;;;2.92;2.60;;;14.70;99.90;;;;;;4941101;29;20055;-64
2023/07/22 01:00:49;;;;;;;3.08;2.70;;;14.70;99.90;;;;;;4932256;29;20051;-63
2023/07/22 01:03:21;;;;;;;4.85;2.65;;;14.70;99.90;;;;;;4935911;29;20047;-64
2023/07/22 01:05:54;;;;;;;4.03;2.58;;;14.70;99.90;;;;;;4936623;29;20062;-63
2023/07/22 01:08:26;;;;;;;7.65;3.17;;;14.70;99.90;;;;;;4938080;29;20050;-63
2023/07/22 01:10:59;;;;;;;4.32;3.08;;;14.70;99.90;;;;;;4941304;29;20062;-64
2023/07/22 01:13:30;;;;;;;2.93;2.63;;;14.60;99.90;;;;;;4942703;29;20129;-63
2023/07/22 01:16:02;;;;;;;4.05;3.30;;;14.70;99.90;;;;;;4929225;29;20394;-63
2023/07/22 01:18:35;;;;;;;3.47;2.85;;;14.60;99.90;;;;;;4926551;29;20524;-63
2023/07/22 01:21:08;;;;;;;3.95;3.45;;;14.50;99.90;;;;;;4948780;29;20556;-63
2023/07/22 01:23:36;;;;;;;4.63;3.03;;;14.40;99.90;;;;;;4934645;29;20038;-63
2023/07/22 01:26:08;;;;;;;5.78;3.55;;;14.30;99.90;;;;;;4951501;29;20497;-63
2023/07/22 01:28:40;;;;;;;4.65;3.83;;;14.30;99.90;;;;;;4952527;29;20054;-63
2023/07/22 01:31:11;;;;;;;4.88;3.88;;;14.30;99.90;;;;;;4951738;29;20417;-63
2023/07/22 01:33:43;;;;;;;4.97;4.25;;;14.30;99.90;;;;;;4940731;29;20039;-63
2023/07/22 01:36:10;;;;;;;6.43;4.38;;;14.30;99.90;;;;;;4943459;29;20055;-63
2023/07/22 01:38:42;;;;;;;7.93;4.95;;;14.40;99.90;;;;;;4943996;29;20165;-63
2023/07/22 01:41:14;;;;;;;5.68;4.45;;;14.30;99.90;;;;;;4940573;29;20047;-63
2023/07/22 01:43:45;;;;;;;5.97;5.18;;;14.30;99.90;;;;;;4946980;29;20139;-63
2023/07/22 01:46:17;;;;;;;6.47;5.13;;;14.40;99.90;;;;;;4921377;29;20039;-63
2023/07/22 01:48:49;;;;;;;6.82;4.95;;;14.30;99.90;;;;;;4919239;29;20051;-63
2023/07/22 01:51:16;;;;;;;4.60;4.10;;;14.20;99.90;;;;;;4935654;29;20134;-63
2023/07/22 01:53:49;;;;;;;5.10;4.18;;;14.30;99.90;;;;;;4938854;29;20051;-63
2023/07/22 01:56:21;;;;;;;4.40;3.28;;;14.30;99.90;;;;;;4940348;29;20036;-63
2023/07/22 01:58:53;;;;;;;5.28;4.03;;;14.30;99.90;;;;;;4925963;29;20059;-63
2023/07/22 02:01:24;;;;;;;5.57;4.28;;;14.30;99.90;;;;;;4928193;29;20048;-63
2023/07/22 02:03:56;;;;;;;7.82;4.90;;;14.30;99.90;;;;;;4946109;29;20039;-63
2023/07/22 02:06:28;;;;;;;7.70;4.97;;;14.30;99.90;;;;;;4946246;28;20043;-63
2023/07/22 02:09:07;;;;;;;6.20;5.60;;;14.30;99.90;;;;;;4947613;29;20094;-63
2023/07/22 02:11:39;;;;;;;6.65;5.47;;;14.30;99.90;;;;;;4952351;29;20437;-64
2023/07/22 02:14:11;;;;;;;6.95;6.25;;;14.30;99.90;;;;;;4935585;29;20055;-63
2023/07/22 02:16:43;;;;;;;6.75;5.97;;;14.30;99.90;;;;;;4939015;29;20051;-63
2023/07/22 02:19:16;;;;;;;6.03;5.43;;;14.30;99.90;;;;;;4946951;29;20047;-63
2023/07/22 02:21:48;;;;;;;8.88;5.57;;;14.40;99.90;;;;;;4944532;29;20431;-63
2023/07/22 02:24:19;;;;;;;7.32;5.65;;;14.40;99.90;;;;;;4942352;29;20138;-63
2023/07/22 02:26:51;;;;;;;7.03;5.03;;;14.30;99.90;;;;;;4946294;29;20051;-63
2023/07/22 02:29:23;;;;;;;5.90;4.85;;;14.30;99.90;;;;;;4937887;29;20051;-63
2023/07/22 02:31:50;;;;;;;5.10;4.60;;;14.20;99.90;;;;;;4919760;29;20061;-63
2023/07/22 02:34:22;;;;;;;5.75;4.25;;;14.20;99.90;;;;;;4933443;29;20055;-63
2023/07/22 02:36:53;;;;;;;7.05;5.68;;;14.20;99.90;;;;;;4919635;29;20489;-63
2023/07/22 02:39:25;;;;;;;7.20;4.95;;;14.10;99.90;;;;;;4938634;29;20039;-64
2023/07/22 02:41:52;;;;;;;5.28;4.50;;;14.10;99.90;;;;;;4939391;29;20039;-63
2023/07/22 02:44:24;;;;;;;6.70;4.70;;;14.10;99.90;;;;;;4927568;29;20051;-63
2023/07/22 02:46:51;;;;;;;8.45;4.90;;;14.20;99.90;;;;;;4943213;29;20150;-63
2023/07/22 02:49:22;;;;;;;5.80;4.53;;;14.20;99.90;;;;;;4929755;29;20438;-63
2023/07/22 02:51:54;;;;;;;5.72;4.43;;;14.30;99.90;;;;;;4937205;29;20078;-63
2023/07/22 02:54:26;;;;;;;5.65;4.25;;;14.30;99.90;;;;;;4919271;29;20071;-63
2023/07/22 02:56:59;;;;;;;5.63;4.30;;;14.30;99.90;;;;;;4936090;29;20039;-63
2023/07/22 02:59:30;;;;;;;6.05;4.20;;;14.30;99.90;;;;;;4931350;29;20047;-63
2023/07/22 03:02:02;;;;;;;4.30;3.88;;;14.30;99.90;;;;;;4942106;29;20115;-63
2023/07/22 03:04:34;;;;;;;6.15;4.20;;;14.30;99.90;;;;;;4935274;29;20477;-63
2023/07/22 03:07:06;;;;;;;5.55;4.20;;;14.30;99.90;;;;;;4940087;29;20506;-63
2023/07/22 03:09:38;;;;;;;5.90;5.30;;;14.20;99.90;;;;;;4913727;29;20098;-63
2023/07/22 03:12:10;;;;;;;9.98;7.57;;;14.20;99.90;;;;;;4939208;29;20047;-63
2023/07/22 03:14:42;;;;;;;6.70;5.72;;;14.20;99.90;;;;;;4936305;29;20406;-63
2023/07/22 03:17:16;;;;;;;6.30;5.70;;;14.20;99.90;;;;;;4934786;29;20076;-63
2023/07/22 03:19:48;;;;;;;8.50;6.65;;;14.10;99.90;;;;;;4932744;29;20119;-63
2023/07/22 03:22:16;;;;;;;7.47;5.40;;;13.90;99.90;;;;;;4928489;29;20500;-63
2023/07/22 03:24:48;;;;;;;6.75;5.43;;;13.90;99.90;;;;;;4949522;29;20106;-63
2023/07/22 03:27:19;;;;;;;7.70;5.45;;;13.80;99.90;;;;;;4939804;29;20048;-63
2023/07/22 03:29:51;;;;;;;6.85;5.20;;;13.90;99.90;;;;;;4926022;29;20069;-63
2023/07/22 03:32:23;;;;;;;6.50;5.15;;;13.90;99.90;;;;;;4942112;29;20054;-63
2023/07/22 03:34:55;;;;;;;7.30;4.85;;;13.90;99.90;;;;;;4938781;29;20055;-63
2023/07/22 03:37:27;;;;;;;5.43;4.65;;;13.80;99.90;;;;;;4936962;29;20044;-63
2023/07/22 03:39:59;;;;;;;5.10;4.20;;;13.90;99.90;;;;;;4921849;29;20058;-63
2023/07/22 03:42:31;;;;;;;7.80;4.57;;;13.90;99.90;;;;;;4933303;29;20415;-63
2023/07/22 03:45:03;;;;;;;6.13;4.78;;;14.00;99.90;;;;;;4938098;29;20058;-63
2023/07/22 03:47:35;;;;;;;6.10;3.78;;;14.00;99.90;;;;;;4937441;29;20130;-63
2023/07/22 03:50:08;;;;;;;7.57;5.00;;;14.00;99.90;;;;;;4922842;29;20054;-63
2023/07/22 03:52:39;;;;;;;10.40;5.15;;;14.10;99.90;;;;;;4925386;29;20047;-63
2023/07/22 03:55:11;;;;;;;6.60;4.95;;;14.10;99.90;;;;;;4933285;29;20054;-63
2023/07/22 03:57:43;;;;;;;6.72;5.28;;;14.00;99.90;;;;;;4929929;29;20399;-63
2023/07/22 04:00:15;;;;;;;7.50;4.63;;;14.00;99.90;;;;;;4936248;29;20483;-63
2023/07/22 04:02:47;;;;;;;7.68;5.13;;;14.10;99.90;;;;;;4933747;29;20164;-63
2023/07/22 04:05:19;;;;;;;5.88;4.93;;;13.90;99.90;;;;;;4932107;29;20053;-63
2023/07/22 04:07:51;;;;;;;8.00;4.72;;;13.90;99.90;;;;;;4935194;29;20071;-63
2023/07/22 04:10:22;;;;;;;5.43;4.38;;;13.80;99.90;;;;;;4921563;29;20047;-63
2023/07/22 04:12:54;;;;;;;6.97;4.15;;;13.80;99.90;;;;;;4922253;29;20147;-63
2023/07/22 04:15:26;;;;;;;5.28;4.43;;;13.80;99.90;;;;;;4925337;29;20047;-63
2023/07/22 04:18:00;;;;;;;5.05;3.65;;;13.80;99.90;;;;;;4941473;29;20130;-63
2023/07/22 04:20:31;;;;;;;5.45;3.85;;;13.80;99.90;;;;;;4943284;29;20071;-63
2023/07/22 04:23:03;;;;;;;4.15;3.50;;;13.80;99.90;;;;;;4931806;29;20054;-63
2023/07/22 04:25:40;;;;;;;4.77;4.03;;;14.00;99.90;;;;;;4949957;29;20581;-63
2023/07/22 04:28:08;;;;;;;4.65;4.03;;;14.00;99.90;;;;;;4950249;29;20129;-63
2023/07/22 04:30:39;;;;;;;5.15;4.40;;;14.00;99.90;;;;;;4947210;29;20570;-63
2023/07/22 04:33:11;;;;;;;4.45;3.40;;;14.10;99.90;;;;;;4947116;29;20266;-63
2023/07/22 04:35:43;;;;;;;4.65;3.67;;;14.10;99.90;;;;;;4927809;29;20131;-63
2023/07/22 04:38:15;;;;;;;4.55;4.15;;;14.20;99.90;;;;;;4941629;29;20047;-63
2023/07/22 04:40:47;;;;;;;4.55;4.07;;;14.20;99.90;;;;;;4938634;29;20861;-63
2023/07/22 04:43:19;;;;;;;4.45;3.97;;;14.30;99.90;;;;;;4945866;29;20070;-63
2023/07/22 04:45:50;;;;;;;6.72;4.65;;;14.30;99.90;;;;;;4936226;29;20031;-63
2023/07/22 04:48:26;;;;;;;5.53;4.00;;;14.30;99.90;;;;;;4934237;29;20522;-63
2023/07/22 04:50:52;;;;;;;4.32;3.92;;;14.40;99.90;;;;;;4917182;29;20520;-63
2023/07/22 04:53:24;;;;;;;6.38;3.95;;;14.40;99.90;;;;;;4939673;29;20047;-63
2023/07/22 04:55:56;;;;;;;5.70;3.97;;;14.40;99.90;;;;;;4926055;29;20063;-63
2023/07/22 04:58:28;;;;;;;5.10;4.38;;;14.40;99.90;;;;;;4940947;29;20066;-63
2023/07/22 05:01:00;;;;;;;5.63;4.30;;;14.50;99.90;;;;;;4943109;29;20042;-63
2023/07/22 05:03:31;;;;;;;7.55;4.45;;;14.50;99.90;;;;;;4924121;29;20050;-63
2023/07/22 05:06:03;;;;;;;5.80;3.63;;;14.50;99.90;;;;;;4947018;29;20051;-63
2023/07/22 05:08:37;;;;;;;5.45;3.88;;;14.50;99.90;;;;;;4947725;29;20060;-63
2023/07/22 05:11:09;;;;;;;4.07;3.67;;;14.50;99.90;;;;;;4923281;29;20070;-63
2023/07/22 05:13:41;;;;;;;6.75;4.05;;;14.50;99.90;;;;;;4932508;29;20400;-63
2023/07/22 05:16:12;;;;;;;4.22;3.83;;;14.50;99.90;;;;;;4923403;29;20134;-63
2023/07/22 05:18:45;;;;;;;6.65;3.90;;;14.50;99.90;;;;;;4940124;29;20430;-63
2023/07/22 05:21:16;;;;;;;4.88;3.72;;;14.50;99.90;;;;;;4938871;29;20043;-63
2023/07/22 05:23:43;;;;;;;5.47;3.60;;;14.60;99.90;;;;;;4941669;29;20406;-64
2023/07/22 05:26:15;;;;;;;4.70;3.85;;;14.60;99.90;;;;;;4942713;29;20059;-63
2023/07/22 05:28:46;;;;;;;4.18;3.50;;;14.70;99.90;;;;;;4938257;29;20145;-63
2023/07/22 05:31:18;;;;;;;3.58;3.00;;;14.70;99.90;;;;;;4927327;29;20131;-63
2023/07/22 05:33:50;;;;;;;7.13;5.05;;;14.80;99.90;;;;;;4932052;29;20119;-63
2023/07/22 05:36:22;;;;;;;8.95;5.60;;;14.80;99.90;;;;;;4933826;29;20147;-63
2023/07/22 05:38:54;;;;;;;10.18;5.97;;;14.90;99.90;;;;;;4937417;29;20043;-63
2023/07/22 05:41:26;;;;;;;3.92;3.38;;;14.90;99.90;;;;;;4937834;29;20047;-63
2023/07/22 05:43:58;;;;;;;7.25;5.10;;;15.00;99.90;;;;;;4947520;29;20418;-63
2023/07/22 05:46:29;;;;;;;7.82;5.28;;;15.40;99.90;;;;;;4945152;29;20043;-63
2023/07/22 05:49:01;;;;;;;7.88;6.05;;;15.60;99.90;;;;;;4945123;29;20047;-63
2023/07/22 05:51:33;;;;;;;8.25;5.25;;;15.70;99.90;;;;;;4939938;29;20519;-63
2023/07/22 05:54:05;;;;;;;5.93;5.32;;;15.70;99.90;;;;;;4938031;29;20052;-64
2023/07/22 05:56:37;;;;;;;8.88;5.90;;;15.60;99.90;;;;;;4936735;29;20052;-63
2023/07/22 05:59:09;;;;;;;8.52;5.75;;;15.50;99.90;;;;;;4937572;29;20057;-63
2023/07/22 06:01:40;;;;;;;7.65;5.97;;;15.50;99.90;;;;;;4950921;29;20048;-63
2023/07/22 06:04:13;;;;;;;9.20;6.35;;;15.40;99.90;;;;;;4934740;29;20079;-63
2023/07/22 06:06:39;;;;;;;7.57;5.95;;;15.40;99.90;;;;;;4947836;29;20442;-63
2023/07/22 06:09:11;;;;;;;7.88;6.05;;;15.50;99.90;;;;;;4945060;29;20046;-63
2023/07/22 06:11:43;;;;;;;7.38;6.25;;;15.50;99.90;;;;;;4942040;29;20073;-63
2023/07/22 06:14:15;;;;;;;6.10;5.50;;;15.50;99.90;;;;;;4944192;29;20418;-63
2023/07/22 06:16:47;;;;;;;5.45;4.70;;;15.50;99.90;;;;;;4937896;29;20047;-63
2023/07/22 06:19:19;;;;;;;6.75;5.43;;;15.50;99.90;;;;;;4935014;29;20051;-63
2023/07/22 06:21:50;;;;;;;5.00;4.43;;;15.60;99.90;;;;;;4945897;29;20044;-63
2023/07/22 06:24:17;;;;;;;5.53;4.07;;;15.60;99.90;;;;;;4938479;29;20358;-63
2023/07/22 06:26:49;;;;;;;5.75;3.75;;;15.70;99.90;;;;;;4939769;29;20064;-63
2023/07/22 06:29:20;;;;;;;3.67;3.08;;;15.70;99.90;;;;;;4941672;29;20523;-63
2023/07/22 06:31:52;;;;;;;3.15;2.85;;;15.80;99.90;;;;;;4943414;29;20056;-63
2023/07/22 06:34:24;;;;;;;3.78;3.03;;;15.90;99.90;;;;;;4922819;29;20055;-64
2023/07/22 06:36:56;;;;;;;5.00;2.42;;;16.00;99.90;;;;;;4937234;29;20518;-64
2023/07/22 06:39:28;;;;;;;4.57;2.45;;;16.10;99.90;;;;;;4938221;29;20411;-64
2023/07/22 06:42:00;;;;;;;4.15;2.28;;;16.20;99.90;;;;;;4942692;29;20050;-64
2023/07/22 06:44:32;;;;;;;3.85;2.40;;;16.20;99.90;;;;;;4942989;29;20525;-66
2023/07/22 06:47:04;;;;;;;3.70;2.42;;;16.30;99.90;;;;;;4941178;29;20047;-65
2023/07/22 06:49:36;;;;;;;3.03;2.13;;;16.40;99.90;;;;;;4946361;29;20426;-66
2023/07/22 06:52:03;;;;;;;3.17;2.10;;;16.50;99.90;;;;;;4944098;29;20054;-65
2023/07/22 06:54:35;;;;;;;5.28;2.35;;;16.70;99.90;;;;;;4943774;28;20521;-64
2023/07/22 06:57:07;;;;;;;3.35;2.30;;;16.80;99.90;;;;;;4942006;29;20047;-65
2023/07/22 06:59:39;;;;;;;4.57;2.00;;;16.90;99.90;;;;;;4942546;29;20112;-65
2023/07/22 07:02:11;;;;;;;2.75;1.90;;;17.10;99.90;;;;;;4945555;29;20090;-65
2023/07/22 07:04:43;;;;;;;3.40;2.40;;;17.20;99.90;;;;;;4937469;29;20032;-65
2023/07/22 07:07:16;;;;;;;5.07;2.97;;;17.30;99.90;;;;;;4933690;29;20053;-65
2023/07/22 07:09:43;;;;;;;2.78;2.00;;;17.40;99.90;;;;;;4938899;29;20047;-67
2023/07/22 07:12:14;;;;;;;2.97;2.30;;;17.50;99.90;;;;;;4946219;29;20058;-65
2023/07/22 07:14:50;;;;;;;2.70;2.10;;;17.50;99.90;;;;;;4889085;29;1095452;-64
2023/07/22 07:17:22;;;;;;;3.08;2.38;;;17.50;99.90;;;;;;4945766;29;20451;-65
2023/07/22 07:19:54;;;;;;;3.67;2.25;;;17.60;99.90;;;;;;4944109;29;20494;-65
2023/07/22 07:22:26;;;;;;;4.65;2.42;;;17.60;99.90;;;;;;4950182;29;20590;-65
2023/07/22 07:24:58;;;;;;;3.40;2.45;;;17.80;99.90;;;;;;4945068;29;20502;-64
2023/07/22 07:27:29;;;;;;;3.85;2.20;;;17.90;99.90;;;;;;4937100;29;20510;-64
2023/07/22 07:30:01;;;;;;;5.85;2.28;;;18.00;99.90;;;;;;4930055;29;20057;-64
2023/07/22 07:32:33;;;;;;;3.75;2.30;;;18.10;99.90;;;;;;4942468;29;20111;-63
2023/07/22 07:35:06;;;;;;;3.28;2.05;;;18.20;99.90;;;;;;4940827;29;20074;-63
2023/07/22 07:37:38;;;;;;;3.17;1.90;;;18.20;99.90;;;;;;4946367;29;20053;-64
2023/07/22 07:40:10;;;;;;;2.90;2.15;;;18.30;99.90;;;;;;4943118;29;20054;-65
2023/07/22 07:42:42;;;;;;;5.40;2.60;;;18.30;99.90;;;;;;4929145;29;20047;-65
2023/07/22 07:45:14;;;;;;;3.70;2.55;;;18.40;99.90;;;;;;4944253;28;20530;-64
2023/07/22 07:47:46;;;;;;;3.08;2.00;;;18.50;99.90;;;;;;4948795;28;20040;-64
2023/07/22 07:50:18;;;;;;;2.88;1.67;;;18.50;99.90;;;;;;4944751;29;20035;-64
2023/07/22 07:52:50;;;;;;;3.03;2.33;;;18.50;99.90;;;;;;4932286;29;20385;-64
2023/07/22 07:55:21;;;;;;;3.90;2.20;;;18.70;99.90;;;;;;4944130;29;20040;-65
2023/07/22 07:57:53;;;;;;;2.88;2.03;;;18.70;99.90;;;;;;4944522;29;20043;-65
2023/07/22 08:00:25;;;;;;;5.30;2.20;;;18.80;99.90;;;;;;4943885;29;20058;-65
2023/07/22 08:02:57;;;;;;;2.70;1.70;;;18.80;99.90;;;;;;4944879;29;20067;-64
2023/07/22 08:05:28;;;;;;;2.22;1.80;;;18.90;99.90;;;;;;4938726;28;20817;-65
2023/07/22 08:08:01;;;;;;;2.65;1.83;;;19.00;99.90;;;;;;4937359;29;20529;-65
2023/07/22 08:10:32;;;;;;;2.22;1.63;;;19.10;99.90;;;;;;4939282;29;20597;-64
2023/07/22 08:13:04;;;;;;;3.58;2.05;;;19.30;99.90;;;;;;4944522;28;20031;-64
2023/07/22 08:15:31;;;;;;;2.92;2.03;;;19.30;99.90;;;;;;4940421;29;20044;-64
2023/07/22 08:18:03;;;;;;;2.50;2.30;;;19.40;99.90;;;;;;4944511;29;20521;-64
2023/07/22 08:20:35;;;;;;;3.03;2.08;;;19.60;99.90;;;;;;4941372;29;20047;-64
2023/07/22 08:23:07;;;;;;;3.03;1.90;;;19.70;99.90;;;;;;4947660;29;20051;-64
2023/07/22 08:25:39;;;;;;;1.95;1.58;;;19.80;99.90;;;;;;4946903;29;20431;-64
2023/07/22 08:28:11;;;;;;;3.83;1.75;;;19.80;99.90;;;;;;4932663;29;20066;-64
2023/07/22 08:30:44;;;;;;;2.20;1.63;;;19.80;99.90;;;;;;4947522;29;20073;-64
2023/07/22 08:33:16;;;;;;;2.63;1.85;;;19.70;99.90;;;;;;4936080;29;20044;-64
2023/07/22 08:35:48;;;;;;;4.38;1.42;;;19.70;99.90;;;;;;4940391;29;20051;-64
2023/07/22 08:38:20;;;;;;;2.58;1.95;;;19.80;99.90;;;;;;4942160;29;20051;-64
2023/07/22 08:40:52;;;;;;;3.05;1.77;;;19.80;99.90;;;;;;4941871;29;20538;-64
2023/07/22 08:43:24;;;;;;;2.78;1.98;;;19.70;99.90;;;;;;4945612;29;20047;-66
2023/07/22 08:46:00;;;;;;;3.40;1.98;;;19.70;99.90;;;;;;4922555;29;20131;-64
2023/07/22 08:48:36;;;;;;;4.00;2.22;;;19.60;99.90;;;;;;4945671;29;20111;-64
2023/07/22 08:54:14;;;;;;;3.13;1.80;;;19.70;99.90;;;;;;4944695;29;20043;-64
2023/07/22 08:56:46;;;;;;;2.47;1.50;;;19.80;99.90;;;;;;4931116;29;20067;-65
2023/07/22 08:59:18;;;;;;;5.75;1.58;;;19.80;99.90;;;;;;4943462;29;20043;-64
2023/07/22 09:01:51;;;;;;;1.92;1.38;;;19.90;99.90;;;;;;4929577;29;20048;-64
2023/07/22 09:04:23;;;;;;;5.85;1.65;;;19.90;99.90;;;;;;4944376;29;20054;-64
2023/07/22 09:06:56;;;;;;;7.18;2.75;;;19.90;99.90;;;;;;4942858;29;20479;-64
2023/07/22 09:09:24;;;;;;;2.38;1.40;;;20.10;99.90;;;;;;4941350;29;20048;-64
2023/07/22 09:11:57;;;;;;;2.58;1.55;;;20.20;99.90;;;;;;4943592;29;20043;-64
2023/07/22 09:14:31;;;;;;;3.97;1.50;;;20.30;99.90;;;;;;4939721;29;20054;-64
2023/07/22 09:17:05;;;;;;;3.65;1.63;;;20.30;99.90;;;;;;4939083;29;20051;-63
2023/07/22 09:19:36;;;;;;;3.25;1.67;;;20.20;99.90;;;;;;4941452;29;20040;-64
2023/07/22 09:22:09;;;;;;;3.10;1.40;;;20.20;99.90;;;;;;4930659;29;20050;-63
2023/07/22 09:24:41;;;;;;;1.90;1.35;;;20.30;99.90;;;;;;4943268;29;20039;-64
2023/07/22 09:27:12;;;;;;;1.95;1.38;;;20.50;99.90;;;;;;4929723;29;20051;-64
2023/07/22 09:29:46;;;;;;;3.60;1.27;;;20.60;99.90;;;;;;4932168;29;20548;-64
2023/07/22 09:32:35;;;;;;;3.00;1.55;;;20.70;99.90;;;;;;4947512;29;20540;-63
2023/07/22 09:35:02;;;;;;;3.35;1.40;;;20.70;99.90;;;;;;4940233;29;20043;-64
2023/07/22 09:37:38;;;;;;;4.55;1.60;;;20.70;99.90;;;;;;4944401;29;20676;-63
2023/07/22 09:40:26;;;;;;;2.33;1.50;;;20.60;99.90;;;;;;4936133;29;20047;-63
2023/07/22 09:42:55;;;;;;;2.67;1.48;;;20.60;99.90;;;;;;4934819;29;20047;-64
2023/07/22 09:45:30;;;;;;;4.05;2.53;;;20.50;99.90;;;;;;4935002;29;20079;-64
2023/07/22 09:48:02;;;;;;;3.78;1.40;;;20.70;99.90;;;;;;4942807;29;20115;-64
2023/07/22 09:50:36;;;;;;;2.10;1.48;;;20.90;99.90;;;;;;4933510;29;20050;-64
2023/07/22 09:53:03;;;;;;;3.75;1.40;;;21.10;99.90;;;;;;4943871;29;20039;-64
2023/07/22 09:55:35;;;;;;;2.78;1.48;;;21.30;99.90;;;;;;4941445;29;20051;-64
2023/07/22 09:58:09;;;;;;;1.63;1.30;;;21.50;99.90;;;;;;4947022;29;20047;-66
2023/07/22 10:00:47;;;;;;;1.70;1.00;;;21.80;99.90;;;;;;4947057;29;20062;-64
2023/07/22 10:03:19;;;;;;;1.63;1.40;;;21.80;99.90;;;;;;4944998;29;20054;-64
2023/07/22 10:05:51;;;;;;;2.03;1.47;;;21.80;99.90;;;;;;4942771;29;20053;-63
2023/07/22 10:08:24;;;;;;;2.83;1.50;;;21.70;99.90;;;;;;4945253;29;20055;-64
2023/07/22 10:10:59;;;;;;;2.53;1.30;;;21.70;99.90;;;;;;4932996;29;20047;-63
2023/07/22 10:13:32;;;;;;;4.55;1.38;;;21.70;99.90;;;;;;4952343;29;20047;-64
2023/07/22 10:16:05;;;;;;;1.67;1.20;;;21.80;99.60;;;;;;4952684;29;20051;-64
2023/07/22 10:18:38;;;;;;;1.90;1.73;;;21.80;99.90;;;;;;4945283;29;20054;-64
2023/07/22 10:21:09;;;;;;;2.10;1.63;;;21.80;99.90;;;;;;4945657;29;20039;-64
2023/07/22 10:23:42;;;;;;;2.35;1.50;;;21.90;99.20;;;;;;4940080;29;20063;-64
2023/07/22 10:26:19;;;;;;;3.20;2.10;;;21.80;98.00;;;;;;4944522;29;20083;-64
2023/07/22 10:28:52;;;;;;;2.35;1.60;;;21.90;99.60;;;;;;4937336;29;20051;-64
2023/07/22 10:31:24;;;;;;;;;;;22.10;99.30;;;;;;4938376;29;20135;-64
2023/07/22 10:33:56;;;;;;;1.52;1.33;;;22.10;98.50;;;;;;4948244;29;19923;-64
2023/07/22 10:36:29;;;;;;;2.72;1.40;;;22.30;97.50;;;;;;4947705;29;20046;-64
2023/07/22 10:38:57;;;;;;;2.13;1.40;;;22.50;97.30;;;;;;4929050;29;20043;-64
2023/07/22 10:41:29;;;;;;;2.45;1.40;;;22.50;96.30;;;;;;4943146;29;20114;-64
2023/07/22 10:44:01;;;;;;;3.38;1.60;;;22.60;97.20;;;;;;4941755;29;20072;-64
2023/07/22 10:46:36;;;;;;;3.75;1.77;;;22.70;98.30;;;;;;4941668;29;20131;-63
2023/07/22 10:49:13;;;;;;;2.47;1.50;;;22.80;97.30;;;;;;4934402;29;20054;-64
2023/07/22 10:51:50;;;;;;;3.17;1.60;;;22.60;96.90;;;;;;4939490;29;20518;-64
2023/07/22 10:54:34;;;;;;;2.30;1.70;;;22.60;97.40;;;;;;4940132;29;20074;-64
2023/07/22 10:57:15;;;;;;;2.13;1.50;;;22.50;97.50;;;;;;4944473;29;20044;-63
2023/07/22 10:59:50;;;;;;;2.22;1.52;;;22.50;97.60;;;;;;4945079;29;20144;-64
2023/07/22 11:02:28;;;;;;;2.47;1.35;;;22.50;97.60;;;;;;4944504;29;20051;-64
2023/07/22 11:05:02;;;;;;;1.45;1.33;;;22.50;96.90;;;;;;4938397;29;20044;-64
2023/07/22 11:07:43;;;;;;;1.70;1.40;;;22.50;95.10;;;;;;4941497;29;20071;-64
2023/07/22 11:10:17;;;;;;;2.13;1.50;;;22.50;96.60;;;;;;4939167;29;20043;-64
2023/07/22 11:12:50;;;;;;;2.17;1.58;;;22.70;95.80;;;;;;4934567;29;20060;-63
2023/07/22 11:15:22;;;;;;;4.32;1.48;;;22.90;97.10;;;;;;4941695;29;20035;-64
2023/07/22 11:17:54;;;;;;;2.38;1.60;;;23.10;96.20;;;;;;4938519;29;20518;-64
2023/07/22 11:20:30;;;;;;;2.00;1.30;;;23.10;94.50;;;;;;4942660;29;20047;-64
2023/07/22 11:23:02;;;;;;;5.28;1.60;;;23.00;93.50;;;;;;4940709;29;20040;-64
2023/07/22 11:25:34;;;;;;;4.53;1.55;;;22.90;93.30;;;;;;4941042;29;20047;-64
2023/07/22 11:28:06;;;;;;;2.30;1.55;;;22.80;93.00;;;;;;4944277;29;20047;-64
2023/07/22 11:30:33;;;;;;;2.25;1.52;;;22.80;92.70;;;;;;4935402;29;20044;-64
2023/07/22 11:33:04;;;;;;;3.08;1.75;;;23.00;92.00;;;;;;4937351;29;20481;-64
2023/07/22 11:35:36;;;;;;;1.95;1.35;;;23.00;91.90;;;;;;4935502;29;20047;-64
2023/07/22 11:38:04;;;;;;;2.40;1.60;;;23.20;93.00;;;;;;4937805;29;20050;-64
2023/07/22 11:40:36;;;;;;;1.73;1.52;;;23.40;94.50;;;;;;4947143;28;20062;-64
2023/07/22 11:43:08;;;;;;;1.83;1.60;;;23.50;95.10;;;;;;4943191;29;20039;-64
2023/07/22 11:45:41;;;;;;;2.20;1.40;;;23.30;93.10;;;;;;4927476;29;20040;-64
2023/07/22 11:48:13;;;;;;;5.28;1.73;;;23.10;93.60;;;;;;4946517;29;20422;-63
2023/07/22 11:50:45;;;;;;;2.60;1.77;;;22.80;92.90;;;;;;4937629;29;20050;-64
2023/07/22 11:53:16;;;;;;;2.00;1.60;;;22.90;93.70;;;;;;4936407;29;20526;-64
2023/07/22 11:55:51;;;;;;;3.03;1.80;;;23.10;93.90;;;;;;4934342;29;20051;-64
2023/07/22 11:58:26;;;;;;;3.05;1.50;;;23.40;93.20;;;;;;4939816;29;20059;-64
2023/07/22 12:01:10;;;;;;;3.13;2.13;;;23.60;93.50;;;;;;4920349;29;20503;-64
2023/07/22 12:03:42;;;;;;;2.47;1.50;;;23.80;93.20;;;;;;4930155;29;20049;-64
2023/07/22 12:06:15;;;;;;;1.60;1.42;;;23.90;92.10;;;;;;4940780;29;20047;-64
2023/07/22 12:08:49;;;;;;;3.47;1.67;;;23.80;91.90;;;;;;4945127;28;20423;-64
2023/07/22 12:11:22;;;;;;;2.00;1.67;;;23.70;92.60;;;;;;4944363;29;20510;-64
2023/07/22 12:14:11;;;;;;;4.13;2.00;;;23.70;91.50;;;;;;4944029;29;20051;-64
2023/07/22 12:16:43;;;;;;;2.38;1.65;;;23.90;92.30;;;;;;4944767;29;20046;-64
2023/07/22 12:19:15;;;;;;;3.42;1.67;;;23.90;91.20;;;;;;4944017;29;20046;-64
2023/07/22 12:21:48;;;;;;;3.58;1.25;;;23.90;91.30;;;;;;4926116;29;20163;-64
2023/07/22 12:24:20;;;;;;;6.18;1.77;;;23.90;91.30;;;;;;4924241;29;20039;-63
2023/07/22 12:26:51;;;;;;;2.78;1.70;;;23.70;91.30;;;;;;4942741;29;20054;-64
2023/07/22 12:29:23;;;;;;;3.13;1.95;;;23.70;90.90;;;;;;4927379;29;20056;-64
2023/07/22 12:31:55;;;;;;;2.75;1.98;;;23.70;90.60;;;;;;4943135;29;20069;-64
2023/07/22 12:34:27;;;;;;;3.28;1.70;;;23.70;91.10;;;;;;4934755;29;20055;-64
2023/07/22 12:36:54;;;;;;;2.28;1.63;;;23.60;91.40;;;;;;4946973;29;20043;-64
2023/07/22 12:39:25;;;;;;;4.78;1.85;;;23.80;92.40;;;;;;4940507;29;20130;-63
2023/07/22 12:41:58;;;;;;;2.15;1.60;;;24.00;90.20;;;;;;4941884;29;20091;-64
2023/07/22 12:44:30;;;;;;;2.65;1.80;;;23.90;90.30;;;;;;4942502;29;20550;-64
2023/07/22 12:47:01;;;;;;;3.35;1.83;;;23.80;91.20;;;;;;4946031;29;20039;-64
2023/07/22 12:49:33;;;;;;;3.47;1.73;;;23.70;91.50;;;;;;4943516;29;20059;-64
2023/07/22 12:52:04;;;;;;;3.63;1.75;;;23.80;91.50;;;;;;4942031;29;20139;-64
2023/07/22 12:54:36;;;;;;;3.20;2.13;;;23.90;91.60;;;;;;4942866;29;20043;-64
2023/07/22 12:57:08;;;;;;;3.17;2.00;;;23.80;91.10;;;;;;4934998;29;20039;-64
2023/07/22 12:59:40;;;;;;;2.97;2.08;;;23.80;91.20;;;;;;4927819;29;20131;-64
2023/07/22 13:02:12;;;;;;;2.60;1.83;;;24.00;91.10;;;;;;4941793;29;20039;-64
2023/07/22 13:04:44;;;;;;;2.60;1.70;;;24.30;90.90;;;;;;4942494;29;20061;-64
2023/07/22 13:07:16;;;;;;;2.28;1.80;;;24.40;90.70;;;;;;4942010;29;20046;-64
2023/07/22 13:09:49;;;;;;;2.70;2.42;;;24.50;90.60;;;;;;4947757;29;20047;-64
2023/07/22 13:12:21;;;;;;;4.65;1.75;;;24.60;91.40;;;;;;4946798;29;20055;-64
2023/07/22 13:14:53;;;;;;;2.10;1.67;;;24.70;90.70;;;;;;4944646;29;20118;-64